San Antonio, Texas
Traffic Map
Current Weather Conditions
San Antonio, Texas
Overcast Light Rain
Overcast

Feels Like: 0°
Wind Chill: Ceiling: 500
Heat Index: Visibility: 4mi
Dew Point: Wind: 10mph
Humidity: 93% Direction: 40° (NE)
Pressure: 30.21in Gusts: 0mph
Raw Report DataKSKF 010408Z AUTO 04009KT 4SM -RA BR OVC005 04/03 A3021 RMK AO2 $
Traffic Incident Summary
Active as of:
Severity:
Category:
InformationThere was an issue retrieving the traffic information for this location. Please try a different location or try again shortly.
Advertisements
Track Severe Weather on mobile